createdAt,value
2023-01-19T00:00:34.909Z,6.72
2023-01-19T00:03:03.403Z,6.50
2023-01-19T00:05:30.154Z,6.90
2023-01-19T00:07:57.011Z,7.38
2023-01-19T00:10:23.946Z,6.80
2023-01-19T00:12:50.666Z,7.50
2023-01-19T00:15:17.365Z,7.10
2023-01-19T00:17:44.075Z,6.82
2023-01-19T00:20:11.872Z,6.97
2023-01-19T00:22:38.578Z,6.90
2023-01-19T00:25:05.406Z,7.45
2023-01-19T00:27:35.057Z,6.82
2023-01-19T00:30:02.448Z,6.38
2023-01-19T00:32:29.196Z,6.45
2023-01-19T00:34:55.850Z,6.55
2023-01-19T00:37:22.580Z,6.82
2023-01-19T00:39:49.276Z,6.80
2023-01-19T00:42:34.633Z,7.78
2023-01-19T00:45:01.303Z,6.78
2023-01-19T00:47:28.380Z,6.82
2023-01-19T00:49:55.114Z,8.82
2023-01-19T00:52:21.912Z,7.43
2023-01-19T00:54:48.653Z,7.60
2023-01-19T00:57:16.168Z,7.80
2023-01-19T00:59:43.307Z,7.03
2023-01-19T01:02:11.608Z,7.07
2023-01-19T01:04:38.613Z,7.40
2023-01-19T01:07:05.392Z,7.85
2023-01-19T01:09:32.374Z,7.72
2023-01-19T01:11:59.224Z,7.05
2023-01-19T01:14:26.715Z,7.72
2023-01-19T01:16:53.621Z,7.53
2023-01-19T01:19:20.588Z,7.15
2023-01-19T01:21:47.365Z,7.18
2023-01-19T01:24:14.048Z,7.40
2023-01-19T01:26:40.737Z,6.68
2023-01-19T01:29:08.472Z,6.93
2023-01-19T01:31:35.286Z,6.70
2023-01-19T01:34:02.061Z,7.25
2023-01-19T01:36:32.169Z,6.85
2023-01-19T01:38:59.465Z,6.90
2023-01-19T01:41:27.552Z,7.43
2023-01-19T01:44:00.102Z,7.20
2023-01-19T01:46:28.995Z,6.43
2023-01-19T01:49:10.677Z,6.63
2023-01-19T01:51:53.541Z,6.85
2023-01-19T01:54:23.184Z,7.35
2023-01-19T01:56:52.979Z,7.30
2023-01-19T01:59:26.364Z,6.78
2023-01-19T02:02:14.657Z,6.53
2023-01-19T02:04:52.265Z,6.50
2023-01-19T02:07:48.729Z,6.85
2023-01-19T02:10:33.964Z,6.30
2023-01-19T02:13:21.847Z,5.72
2023-01-19T02:15:57.889Z,6.15
2023-01-19T02:18:28.322Z,6.05
2023-01-19T02:21:24.065Z,6.15
2023-01-19T02:23:51.951Z,6.20
2023-01-19T02:26:22.372Z,6.43
2023-01-19T02:29:04.766Z,7.95
2023-01-19T02:31:33.557Z,6.97
2023-01-19T02:34:02.560Z,6.75
2023-01-19T02:36:35.680Z,6.30
2023-01-19T02:39:04.538Z,6.82
2023-01-19T02:41:36.526Z,6.32
2023-01-19T02:44:06.176Z,6.60
2023-01-19T02:46:33.326Z,6.47
2023-01-19T02:49:01.712Z,7.15
2023-01-19T02:51:32.296Z,7.97
2023-01-19T02:54:04.795Z,7.83
2023-01-19T02:56:37.309Z,8.20
2023-01-19T02:59:14.842Z,8.02
2023-01-19T03:02:09.422Z,7.25
2023-01-19T03:05:00.962Z,7.43
2023-01-19T03:07:52.692Z,7.60
2023-01-19T03:10:34.514Z,7.90
2023-01-19T03:13:31.233Z,7.60
2023-01-19T03:16:09.539Z,7.85
2023-01-19T03:18:38.733Z,7.47
2023-01-19T03:21:07.707Z,7.75
2023-01-19T03:23:38.769Z,7.15
2023-01-19T03:26:09.795Z,7.05
2023-01-19T03:28:40.229Z,6.88
2023-01-19T03:31:17.289Z,7.43
2023-01-19T03:33:50.020Z,6.97
2023-01-19T03:38:58.589Z,6.53
2023-01-19T03:41:28.435Z,7.00
2023-01-19T03:43:56.898Z,8.30
2023-01-19T03:46:26.263Z,7.70
2023-01-19T03:48:53.449Z,8.63
2023-01-19T03:51:21.767Z,8.77
2023-01-19T03:53:50.099Z,9.05
2023-01-19T03:56:22.677Z,9.20
2023-01-19T03:58:49.793Z,8.18
2023-01-19T04:01:17.766Z,8.27
2023-01-19T04:03:44.601Z,7.97
2023-01-19T04:06:11.462Z,8.07
2023-01-19T04:08:38.139Z,8.23
2023-01-19T04:11:05.000Z,8.02
2023-01-19T04:13:31.756Z,8.63
2023-01-19T04:16:03.285Z,9.02
2023-01-19T04:18:33.724Z,9.07
2023-01-19T04:21:02.045Z,9.13
2023-01-19T04:23:28.904Z,9.57
2023-01-19T04:25:59.601Z,8.98
2023-01-19T04:28:27.386Z,9.30
2023-01-19T04:30:54.716Z,9.57
2023-01-19T04:33:22.589Z,9.43
2023-01-19T04:35:52.259Z,9.18
2023-01-19T04:38:20.660Z,9.02
2023-01-19T04:40:49.258Z,9.07
2023-01-19T04:43:16.155Z,9.40
2023-01-19T04:45:44.831Z,10.77
2023-01-19T04:48:12.785Z,11.10
2023-01-19T04:50:39.920Z,11.00
2023-01-19T04:53:06.593Z,9.80
2023-01-19T04:55:33.511Z,10.15
2023-01-19T04:58:00.588Z,7.75
2023-01-19T05:00:28.261Z,10.98
2023-01-19T05:02:55.002Z,9.93
2023-01-19T05:05:21.805Z,10.95
2023-01-19T05:07:48.519Z,10.43
2023-01-19T05:10:15.363Z,10.57
2023-01-19T05:12:42.346Z,11.07
2023-01-19T05:15:10.032Z,10.32
2023-01-19T05:17:37.119Z,11.38
2023-01-19T05:20:04.709Z,12.25
2023-01-19T05:22:31.676Z,11.18
2023-01-19T05:24:58.510Z,12.50
2023-01-19T05:27:25.202Z,11.43
2023-01-19T05:29:52.113Z,12.73
2023-01-19T05:32:18.804Z,12.77
2023-01-19T05:34:45.506Z,11.80
2023-01-19T05:37:12.209Z,11.88
2023-01-19T05:39:38.878Z,11.88
2023-01-19T05:42:05.694Z,12.23
2023-01-19T05:44:32.389Z,12.43
2023-01-19T05:46:59.197Z,12.48
2023-01-19T05:49:25.963Z,12.73
2023-01-19T05:51:52.649Z,13.48
2023-01-19T05:54:19.328Z,11.07
2023-01-19T05:56:46.104Z,12.02
2023-01-19T05:59:12.846Z,11.30
2023-01-19T06:01:40.324Z,12.27
2023-01-19T06:04:10.258Z,10.95
2023-01-19T06:06:36.938Z,10.90
2023-01-19T06:09:03.699Z,12.10
2023-01-19T06:11:30.406Z,12.35
2023-01-19T06:13:57.165Z,12.10
2023-01-19T06:16:23.878Z,11.50
2023-01-19T06:18:50.634Z,11.73
2023-01-19T06:21:17.369Z,11.30
2023-01-19T06:23:44.792Z,11.75
2023-01-19T06:26:11.720Z,12.35
2023-01-19T06:28:38.418Z,11.80
2023-01-19T06:31:05.520Z,11.30
2023-01-19T06:33:32.265Z,11.60
2023-01-19T06:35:58.997Z,13.23
2023-01-19T06:38:26.073Z,13.38
2023-01-19T06:41:02.716Z,14.23
2023-01-19T06:43:29.820Z,13.20
2023-01-19T06:45:56.556Z,13.27
2023-01-19T06:48:23.737Z,13.45
2023-01-19T06:50:50.493Z,14.10
2023-01-19T06:53:17.376Z,14.65
2023-01-19T06:55:44.472Z,15.77
2023-01-19T06:58:11.804Z,15.45
2023-01-19T07:00:38.605Z,17.75
2023-01-19T07:03:09.166Z,18.42
2023-01-19T07:05:36.713Z,17.33
2023-01-19T07:08:04.034Z,15.25
2023-01-19T07:11:24.658Z,14.77
2023-01-19T07:13:17.817Z,13.40
2023-01-19T07:15:44.616Z,12.98
2023-01-19T07:18:11.378Z,12.52
2023-01-19T07:20:38.500Z,12.13
2023-01-19T07:23:05.183Z,13.35
2023-01-19T07:25:32.146Z,12.43
2023-01-19T07:27:59.747Z,11.77
2023-01-19T07:30:27.000Z,13.43
2023-01-19T07:32:58.600Z,12.30
2023-01-19T07:35:26.062Z,13.93
2023-01-19T07:37:52.976Z,13.80
2023-01-19T07:40:19.744Z,12.90
2023-01-19T07:42:48.677Z,13.13
2023-01-19T07:45:17.418Z,11.80
2023-01-19T07:47:51.837Z,12.73
2023-01-19T07:50:21.449Z,11.27
2023-01-19T07:52:50.749Z,12.38
2023-01-19T07:55:17.670Z,11.68
2023-01-19T07:57:44.370Z,13.80
2023-01-19T08:00:11.659Z,14.10
2023-01-19T08:02:41.789Z,12.95
2023-01-19T08:05:09.037Z,14.80
2023-01-19T08:07:35.820Z,12.70
2023-01-19T08:10:02.476Z,13.93
2023-01-19T08:12:29.635Z,14.43
2023-01-19T08:14:56.320Z,13.85
2023-01-19T08:17:22.990Z,12.55
2023-01-19T08:19:49.724Z,13.40
2023-01-19T08:22:16.577Z,12.45
2023-01-19T08:24:43.319Z,12.52
2023-01-19T08:27:10.099Z,11.77
2023-01-19T08:29:37.061Z,11.70
2023-01-19T08:32:04.068Z,12.35
2023-01-19T08:34:31.120Z,11.65
2023-01-19T08:36:58.711Z,11.20
2023-01-19T08:39:28.314Z,10.95
2023-01-19T08:41:55.248Z,11.80
2023-01-19T08:44:22.127Z,14.40
2023-01-19T08:46:48.881Z,12.85
2023-01-19T08:49:15.965Z,12.35
2023-01-19T08:51:46.955Z,11.73
2023-01-19T08:54:14.171Z,11.88
2023-01-19T08:56:41.016Z,12.55
2023-01-19T08:59:10.083Z,12.50
2023-01-19T09:01:37.943Z,12.40
2023-01-19T09:04:05.001Z,13.55
2023-01-19T09:06:32.767Z,14.10
2023-01-19T09:08:59.786Z,12.57
2023-01-19T09:11:30.055Z,13.32
2023-01-19T09:13:56.792Z,12.40
2023-01-19T09:16:23.593Z,12.77
2023-01-19T09:18:50.306Z,12.38
2023-01-19T09:21:17.054Z,11.00
2023-01-19T09:23:43.844Z,10.52
2023-01-19T09:26:10.918Z,9.88
2023-01-19T09:28:38.345Z,9.95
2023-01-19T09:31:07.743Z,9.00
2023-01-19T09:33:35.241Z,8.88
2023-01-19T09:36:02.339Z,9.13
2023-01-19T09:38:32.782Z,8.70
2023-01-19T09:41:00.545Z,9.52
2023-01-19T09:43:42.182Z,7.55
2023-01-19T09:46:14.353Z,7.85
2023-01-19T09:48:48.005Z,7.60
2023-01-19T09:51:28.302Z,7.72
2023-01-19T09:54:15.992Z,7.20
2023-01-19T09:56:44.598Z,6.53
2023-01-19T09:59:21.099Z,6.68
2023-01-19T10:02:12.538Z,7.93
2023-01-19T10:04:44.630Z,7.03
2023-01-19T10:07:32.591Z,7.53
2023-01-19T10:10:08.418Z,7.20
2023-01-19T10:12:35.037Z,7.00
2023-01-19T10:15:39.336Z,7.13
2023-01-19T10:18:17.981Z,8.32
2023-01-19T10:21:15.348Z,7.10
2023-01-19T10:24:08.334Z,7.57
2023-01-19T10:26:43.768Z,6.55
2023-01-19T10:29:25.969Z,8.05
2023-01-19T10:32:01.827Z,6.93
2023-01-19T10:34:28.617Z,7.38
2023-01-19T10:37:04.806Z,7.65
2023-01-19T10:39:31.903Z,8.40
2023-01-19T10:42:02.477Z,7.07
2023-01-19T10:44:35.155Z,6.75
2023-01-19T10:47:02.481Z,5.90
2023-01-19T10:49:29.192Z,6.07
2023-01-19T10:52:00.022Z,6.50
2023-01-19T10:54:30.239Z,7.95
2023-01-19T10:56:59.397Z,9.40
2023-01-19T10:59:51.136Z,7.55
2023-01-19T11:02:27.716Z,7.85
2023-01-19T11:05:21.643Z,6.68
2023-01-19T11:07:48.337Z,7.07
2023-01-19T11:10:17.898Z,6.55
2023-01-19T11:12:54.687Z,6.45
2023-01-19T11:15:24.445Z,6.80
2023-01-19T11:17:52.884Z,7.10
2023-01-19T11:20:29.451Z,6.40
2023-01-19T11:23:18.687Z,6.20
2023-01-19T11:25:48.472Z,6.78
2023-01-19T11:28:32.866Z,7.00
2023-01-19T11:30:59.583Z,7.05
2023-01-19T11:33:43.471Z,6.45
2023-01-19T11:36:26.777Z,6.95
2023-01-19T11:38:56.122Z,6.35
2023-01-19T11:41:35.487Z,6.80
2023-01-19T11:44:29.934Z,7.78
2023-01-19T11:46:59.982Z,6.75
2023-01-19T11:49:51.572Z,6.40
2023-01-19T11:52:27.203Z,5.90
2023-01-19T11:54:56.730Z,6.35
2023-01-19T11:57:23.628Z,7.03
2023-01-19T11:59:50.949Z,5.63
2023-01-19T12:02:30.650Z,5.72
2023-01-19T12:05:04.836Z,6.00
2023-01-19T12:07:35.455Z,5.13
2023-01-19T12:10:25.534Z,7.72
2023-01-19T12:12:53.399Z,8.95
2023-01-19T12:15:35.757Z,11.40
2023-01-19T12:18:05.158Z,11.20
2023-01-19T12:20:37.963Z,5.55
2023-01-19T12:23:10.754Z,6.53
2023-01-19T12:25:55.631Z,6.10
2023-01-19T12:28:32.754Z,6.40
2023-01-19T12:31:02.656Z,6.30
2023-01-19T12:33:29.357Z,7.18
2023-01-19T12:36:00.887Z,6.28
2023-01-19T12:38:43.376Z,5.72
2023-01-19T12:41:27.743Z,5.95
2023-01-19T12:44:09.937Z,7.75
2023-01-19T12:46:47.938Z,11.30
2023-01-19T12:49:31.281Z,6.68
2023-01-19T12:52:10.141Z,6.20
2023-01-19T12:54:37.821Z,5.93
2023-01-19T12:57:16.879Z,5.55
2023-01-19T12:59:43.885Z,5.30
2023-01-19T13:02:42.378Z,6.32
2023-01-19T13:05:15.147Z,6.10
2023-01-19T13:08:03.386Z,6.60
2023-01-19T13:11:09.606Z,6.38
2023-01-19T13:13:36.880Z,7.10
2023-01-19T13:16:18.878Z,6.10
2023-01-19T13:18:50.514Z,5.88
2023-01-19T13:21:30.871Z,5.45
2023-01-19T13:24:03.750Z,4.88
2023-01-19T13:26:38.525Z,5.65
2023-01-19T13:29:15.953Z,5.13
2023-01-19T13:31:49.098Z,6.18
2023-01-19T13:34:23.009Z,5.80
2023-01-19T13:36:59.264Z,4.88
2023-01-19T13:39:44.240Z,4.88
2023-01-19T13:42:30.473Z,5.95
2023-01-19T13:45:05.612Z,3.90
2023-01-19T13:47:49.164Z,4.13
2023-01-19T13:50:20.286Z,4.55
2023-01-19T13:52:48.901Z,4.30
2023-01-19T13:55:16.029Z,4.97
2023-01-19T13:57:45.497Z,4.05
2023-01-19T14:00:12.498Z,4.97
2023-01-19T14:02:42.242Z,4.50
2023-01-19T14:05:15.787Z,3.45
2023-01-19T14:07:42.553Z,4.82
2023-01-19T14:10:15.050Z,3.50
2023-01-19T14:12:58.222Z,4.57
2023-01-19T14:15:26.140Z,3.95
2023-01-19T14:18:11.333Z,3.92
2023-01-19T14:20:38.641Z,3.72
2023-01-19T14:23:06.975Z,4.10
2023-01-19T14:25:36.171Z,3.72
2023-01-19T14:28:28.459Z,3.67
2023-01-19T14:30:57.259Z,3.25
2023-01-19T14:33:58.520Z,3.90
2023-01-19T14:36:36.304Z,4.30
2023-01-19T14:39:04.264Z,4.07
2023-01-19T14:41:36.778Z,3.47
2023-01-19T14:44:09.118Z,3.20
2023-01-19T14:46:36.199Z,3.33
2023-01-19T14:49:06.056Z,3.10
2023-01-19T14:51:33.061Z,3.13
2023-01-19T14:54:01.938Z,3.80
2023-01-19T14:56:31.482Z,4.07
2023-01-19T14:58:59.713Z,3.78
2023-01-19T15:01:31.304Z,4.30
2023-01-19T15:03:58.558Z,4.20
2023-01-19T15:06:26.639Z,4.78
2023-01-19T15:08:54.361Z,3.33
2023-01-19T15:11:29.885Z,3.92
2023-01-19T15:13:56.714Z,4.65
2023-01-19T15:16:26.002Z,3.85
2023-01-19T15:18:52.690Z,5.18
2023-01-19T15:21:23.189Z,6.55
2023-01-19T15:23:50.553Z,10.27
2023-01-19T15:26:19.449Z,7.22
2023-01-19T15:28:48.786Z,8.75
2023-01-19T15:31:18.059Z,7.63
2023-01-19T15:33:45.348Z,7.72
2023-01-19T15:36:18.419Z,6.97
2023-01-19T15:38:45.725Z,5.32
2023-01-19T15:41:14.546Z,4.43
2023-01-19T15:43:41.321Z,4.03
2023-01-19T15:46:11.616Z,3.50
2023-01-19T15:48:38.343Z,3.47
2023-01-19T15:51:12.399Z,3.10
2023-01-19T15:53:40.407Z,2.75
2023-01-19T15:56:11.815Z,2.95
2023-01-19T15:58:38.499Z,12.23
2023-01-19T16:01:05.404Z,15.40
2023-01-19T16:03:32.127Z,7.88
2023-01-19T16:06:01.895Z,4.72
2023-01-19T16:08:28.929Z,4.50
2023-01-19T16:10:55.662Z,4.47
2023-01-19T16:13:22.376Z,7.00
2023-01-19T16:29:11.012Z,7.45
2023-01-19T16:31:39.132Z,6.68
2023-01-19T16:34:06.089Z,5.30
2023-01-19T16:36:35.034Z,4.75
2023-01-19T16:39:13.769Z,4.20
2023-01-19T16:41:40.898Z,4.93
2023-01-19T16:44:09.710Z,5.38
2023-01-19T16:46:40.201Z,4.20
2023-01-19T16:49:15.303Z,4.90
2023-01-19T16:51:42.269Z,5.07
2023-01-19T16:54:13.469Z,5.63
2023-01-19T16:56:40.167Z,5.85
2023-01-19T16:59:07.040Z,4.80
2023-01-19T17:01:33.923Z,9.13
2023-01-19T17:04:00.671Z,12.20
2023-01-19T17:06:30.231Z,11.05
2023-01-19T17:08:57.596Z,12.90
2023-01-19T17:11:27.032Z,9.18
2023-01-19T17:13:54.942Z,13.02
2023-01-19T17:16:23.081Z,21.27
2023-01-19T17:18:50.321Z,14.38
2023-01-19T17:21:18.103Z,11.40
2023-01-19T17:23:47.719Z,6.90
2023-01-19T17:26:15.481Z,5.18
2023-01-19T17:28:42.668Z,9.40
2023-01-19T17:31:18.741Z,8.60
2023-01-19T17:33:47.346Z,7.45
2023-01-19T17:36:20.501Z,8.93
2023-01-19T17:38:47.167Z,8.88
2023-01-19T17:41:26.219Z,7.35
2023-01-19T17:43:53.530Z,5.25
2023-01-19T17:46:23.325Z,6.25
2023-01-19T17:49:03.914Z,5.95
2023-01-19T17:51:31.171Z,6.18
2023-01-19T17:53:58.561Z,5.10
2023-01-19T17:56:29.587Z,5.85
2023-01-19T17:58:57.691Z,5.63
2023-01-19T18:01:30.484Z,6.50
2023-01-19T18:03:58.352Z,6.20
2023-01-19T18:06:25.095Z,4.70
2023-01-19T18:08:52.650Z,4.28
2023-01-19T18:11:20.824Z,5.93
2023-01-19T18:13:49.185Z,6.63
2023-01-19T18:16:19.338Z,4.22
2023-01-19T18:18:46.509Z,5.75
2023-01-19T18:21:14.895Z,5.40
2023-01-19T18:23:46.014Z,6.10
2023-01-19T18:26:18.670Z,6.20
2023-01-19T18:28:45.869Z,6.50
2023-01-19T18:31:16.149Z,6.05
2023-01-19T18:33:43.033Z,6.00
2023-01-19T18:36:10.590Z,5.80
2023-01-19T18:38:39.211Z,5.45
2023-01-19T18:41:08.848Z,5.80
2023-01-19T18:43:35.746Z,5.50
2023-01-19T18:46:02.754Z,5.32
2023-01-19T18:48:29.742Z,6.68
2023-01-19T18:50:56.664Z,6.15
2023-01-19T18:53:23.954Z,8.05
2023-01-19T18:55:58.710Z,9.02
2023-01-19T18:58:28.625Z,5.82
2023-01-19T19:00:56.260Z,7.00
2023-01-19T19:03:23.454Z,6.55
2023-01-19T19:05:50.322Z,6.00
2023-01-19T19:08:17.046Z,5.88
2023-01-19T19:10:44.025Z,5.40
2023-01-19T19:13:13.285Z,5.38
2023-01-19T19:15:40.174Z,4.93
2023-01-19T19:18:09.015Z,4.70
2023-01-19T19:20:39.311Z,4.55
2023-01-19T19:23:06.142Z,4.60
2023-01-19T19:25:33.155Z,4.10
2023-01-19T19:27:59.851Z,4.47
2023-01-19T19:30:26.875Z,4.35
2023-01-19T19:32:56.069Z,3.97
2023-01-19T19:35:23.831Z,4.03
2023-01-19T19:37:51.534Z,4.03
2023-01-19T19:40:18.327Z,4.25
2023-01-19T19:42:45.136Z,4.28
2023-01-19T19:45:12.343Z,4.93
2023-01-19T19:47:39.049Z,5.70
2023-01-19T19:50:06.009Z,6.07
2023-01-19T19:52:38.043Z,5.40
2023-01-19T19:55:06.586Z,5.50
2023-01-19T19:57:33.301Z,8.52
2023-01-19T19:59:59.970Z,10.98
2023-01-19T20:02:26.680Z,11.35
2023-01-19T20:04:53.620Z,10.75
2023-01-19T20:07:20.299Z,10.40
2023-01-19T20:09:47.427Z,12.65
2023-01-19T20:12:14.148Z,14.30
2023-01-19T20:14:40.932Z,13.88
2023-01-19T20:17:07.631Z,12.77
2023-01-19T20:19:34.329Z,14.13
2023-01-19T20:22:00.952Z,16.98
2023-01-19T20:24:28.060Z,19.05
2023-01-19T20:26:56.328Z,19.40
2023-01-19T20:29:23.319Z,14.70
2023-01-19T20:31:55.521Z,12.30
2023-01-19T20:34:25.528Z,10.77
2023-01-19T20:36:53.967Z,8.93
2023-01-19T20:39:22.779Z,9.30
2023-01-19T20:41:51.364Z,8.23
2023-01-19T20:44:23.675Z,8.23
2023-01-19T20:46:52.676Z,8.07
2023-01-19T20:49:19.745Z,5.90
2023-01-19T20:51:47.062Z,5.95
2023-01-19T20:54:16.009Z,5.22
2023-01-19T20:56:42.717Z,5.97
2023-01-19T20:59:11.408Z,6.43
2023-01-19T21:01:39.026Z,5.25
2023-01-19T21:04:05.882Z,5.72
2023-01-19T21:06:33.124Z,5.50
2023-01-19T21:08:59.844Z,5.57
2023-01-19T21:11:26.925Z,4.78
2023-01-19T21:13:56.250Z,5.55
2023-01-19T21:16:24.382Z,5.10
2023-01-19T21:18:51.308Z,5.35
2023-01-19T21:21:29.850Z,6.75
2023-01-19T21:23:59.204Z,7.85
2023-01-19T21:26:26.107Z,8.98
2023-01-19T21:28:52.926Z,8.35
2023-01-19T21:31:22.669Z,6.43
2023-01-19T21:33:53.413Z,7.28
2023-01-19T21:36:21.287Z,7.37
2023-01-19T21:38:48.412Z,6.55
2023-01-19T21:41:16.388Z,7.53
2023-01-19T21:43:43.520Z,7.70
2023-01-19T21:46:20.710Z,7.75
2023-01-19T21:48:47.916Z,7.53
2023-01-19T21:51:15.751Z,7.15
2023-01-19T21:53:43.563Z,8.23
2023-01-19T21:56:11.318Z,8.57
2023-01-19T21:58:38.447Z,7.85
2023-01-19T22:01:10.840Z,8.57
2023-01-19T22:03:37.823Z,7.93
2023-01-19T22:06:06.387Z,7.25
2023-01-19T22:08:33.591Z,7.20
2023-01-19T22:11:05.294Z,7.88
2023-01-19T22:13:33.290Z,7.55
2023-01-19T22:16:04.295Z,8.60
2023-01-19T22:18:31.042Z,7.57
2023-01-19T22:21:36.188Z,7.60
2023-01-19T22:24:04.584Z,7.95
2023-01-19T22:26:34.099Z,8.55
2023-01-19T22:29:03.167Z,7.82
2023-01-19T22:31:30.942Z,7.25
2023-01-19T22:33:58.016Z,7.07
2023-01-19T22:36:25.859Z,7.00
2023-01-19T22:38:53.718Z,6.38
2023-01-19T22:41:29.577Z,5.20
2023-01-19T22:43:58.445Z,4.85
2023-01-19T22:46:27.892Z,4.85
2023-01-19T22:48:55.409Z,5.13
2023-01-19T22:51:23.550Z,5.30
2023-01-19T22:53:50.714Z,5.72
2023-01-19T22:56:21.758Z,5.50
2023-01-19T22:58:49.283Z,5.00
2023-01-19T23:01:19.411Z,5.63
2023-01-19T23:03:46.431Z,5.25
2023-01-19T23:06:16.486Z,5.57
2023-01-19T23:08:43.740Z,4.88
2023-01-19T23:11:15.995Z,5.50
2023-01-19T23:13:43.152Z,6.05
2023-01-19T23:16:10.784Z,6.57
2023-01-19T23:18:38.177Z,5.35
2023-01-19T23:21:11.007Z,6.45
2023-01-19T23:23:38.421Z,5.95
2023-01-19T23:26:10.607Z,5.47
2023-01-19T23:28:38.043Z,5.05
2023-01-19T23:31:22.548Z,7.03
2023-01-19T23:33:50.884Z,8.65
2023-01-19T23:36:18.699Z,6.03
2023-01-19T23:38:53.912Z,6.25
2023-01-19T23:41:21.231Z,5.57
2023-01-19T23:43:47.927Z,5.72
2023-01-19T23:46:15.727Z,6.68
2023-01-19T23:48:42.626Z,5.88
2023-01-19T23:51:12.686Z,5.93
2023-01-19T23:53:39.812Z,6.38
2023-01-19T23:56:26.189Z,5.45
2023-01-19T23:58:55.570Z,5.78
